Time;durP1;ratioP1;P1;durP2;ratioP2;P2;SDS_P1;SDS_P2;PMS_P1;PMS_P2;Temp;Humidity;BMP_temperature;BMP_pressure;BME280_temperature;BME280_humidity;BME280_pressure;Samples;Min_cycle;Max_cycle;Signal;HPM_P1;HPM_P2
2023/10/17 00:01:18;;;;;;;10.95;2.72;;;;;;;;;;5061387;27;99231;-73
2023/10/17 00:03:45;;;;;;;8.48;3.10;;;;;;;;;;5064879;27;100137;-73
2023/10/17 00:06:13;;;;;;;6.30;3.30;;;;;;;;;;5065248;27;98089;-72
2023/10/17 00:08:41;;;;;;;3.63;3.33;;;;;;;;;;5060047;27;98651;-72
2023/10/17 00:11:12;;;;;;;4.63;2.88;;;;;;;;;;5067625;27;99906;-72
2023/10/17 00:13:38;;;;;;;6.22;3.42;;;;;;;;;;5064913;27;98216;-72
2023/10/17 00:16:08;;;;;;;12.88;3.25;;;;;;;;;;5048381;27;98682;-72
2023/10/17 00:18:34;;;;;;;4.10;3.80;;;;;;;;;;5046536;27;98919;-71
2023/10/17 00:23:59;;;;;;;3.83;3.08;;;;;;;;;;5050683;27;99102;-72
2023/10/17 00:26:26;;;;;;;5.80;3.00;;;;;;;;;;5066434;27;98267;-71
2023/10/17 00:28:53;;;;;;;10.40;2.95;;;;;;;;;;5066291;27;98385;-71
2023/10/17 00:31:21;;;;;;;4.32;3.03;;;;;;;;;;5067062;27;98968;-72
2023/10/17 00:33:57;;;;;;;5.45;4.55;;;;;;;;;;5059447;27;98218;-72
2023/10/17 00:36:26;;;;;;;10.57;3.28;;;;;;;;;;5065341;27;98341;-71
2023/10/17 00:38:54;;;;;;;10.80;3.92;;;;;;;;;;5067562;27;98659;-73
2023/10/17 00:41:32;;;;;;;3.78;3.40;;;;;;;;;;5067830;27;98316;-72
2023/10/17 00:43:58;;;;;;;6.45;3.33;;;;;;;;;;5071503;27;98573;-72
2023/10/17 00:46:25;;;;;;;5.47;3.22;;;;;;;;;;5067017;27;98390;-72
2023/10/17 00:49:04;;;;;;;5.38;3.05;;;;;;;;;;5067751;27;98348;-71
2023/10/17 00:51:32;;;;;;;3.72;2.42;;;;;;;;;;5065474;27;99249;-71
2023/10/17 00:54:00;;;;;;;5.60;3.22;;;;;;;;;;5067983;27;98562;-71
2023/10/17 00:56:27;;;;;;;3.45;2.80;;;;;;;;;;5067507;27;98575;-72
2023/10/17 00:58:57;;;;;;;10.38;3.20;;;;;;;;;;5067948;27;98653;-71
2023/10/17 01:01:27;;;;;;;6.45;2.88;;;;;;;;;;5065538;27;98102;-71
2023/10/17 01:03:55;;;;;;;5.88;3.17;;;;;;;;;;5068365;27;98785;-72
2023/10/17 01:09:08;;;;;;;3.00;2.80;;;;;;;;;;5061933;27;98332;-72
2023/10/17 01:11:38;;;;;;;3.83;3.13;;;;;;;;;;5054955;27;98767;-71
2023/10/17 01:14:05;;;;;;;7.10;3.58;;;;;;;;;;5043672;27;98548;-72
2023/10/17 01:16:35;;;;;;;5.20;3.08;;;;;;;;;;5063258;27;99662;-72
2023/10/17 01:19:05;;;;;;;8.35;3.42;;;;;;;;;;5065368;27;101023;-72
2023/10/17 01:21:31;;;;;;;6.45;3.60;;;;;;;;;;5060673;27;99482;-72
2023/10/17 01:23:58;;;;;;;7.68;3.80;;;;;;;;;;5047324;27;98264;-71
2023/10/17 01:26:26;;;;;;;4.70;2.38;;;;;;;;;;5049669;27;99136;-72
2023/10/17 01:28:53;;;;;;;7.20;3.05;;;;;;;;;;5054158;27;98359;-72
2023/10/17 01:31:23;;;;;;;5.90;3.30;;;;;;;;;;5047187;27;98966;-72
2023/10/17 01:33:51;;;;;;;3.50;2.90;;;;;;;;;;5047342;27;98253;-72
2023/10/17 01:36:19;;;;;;;7.38;2.92;;;;;;;;;;5045943;27;98769;-72
2023/10/17 01:38:49;;;;;;;6.07;3.47;;;;;;;;;;5053404;27;99010;-72
2023/10/17 01:41:18;;;;;;;5.72;3.78;;;;;;;;;;5049004;27;98277;-72
2023/10/17 01:43:45;;;;;;;7.25;3.92;;;;;;;;;;5056196;27;98643;-72
2023/10/17 01:46:16;;;;;;;10.38;3.42;;;;;;;;;;5063893;27;99234;-73
2023/10/17 01:48:49;;;;;;;7.88;3.40;;;;;;;;;;5051269;27;98403;-72
2023/10/17 01:51:16;;;;;;;7.35;4.38;;;;;;;;;;5081379;27;99845;-72
2023/10/17 01:53:45;;;;;;;5.93;3.30;;;;;;;;;;5067649;27;98343;-72
2023/10/17 01:56:14;;;;;;;8.00;4.45;;;;;;;;;;5065349;27;99481;-72
2023/10/17 01:58:50;;;;;;;8.07;4.85;;;;;;;;;;5064208;27;99946;-72
2023/10/17 02:01:29;;;;;;;3.63;3.28;;;;;;;;;;5064861;27;99795;-72
2023/10/17 02:04:01;;;;;;;5.35;3.15;;;;;;;;;;5064542;27;100990;-72
2023/10/17 02:06:33;;;;;;;3.72;3.05;;;;;;;;;;5067352;27;98756;-73
2023/10/17 02:09:08;;;;;;;3.45;3.15;;;;;;;;;;5090578;27;100315;-72
2023/10/17 02:11:50;;;;;;;6.47;3.65;;;;;;;;;;5081942;27;98604;-73
2023/10/17 02:14:17;;;;;;;4.53;3.63;;;;;;;;;;5060212;27;98149;-73
2023/10/17 02:16:43;;;;;;;6.05;3.40;;;;;;;;;;5054830;27;98826;-72
2023/10/17 02:19:10;;;;;;;6.28;4.25;;;;;;;;;;5059209;27;98754;-72
2023/10/17 02:21:43;;;;;;;5.63;3.60;;;;;;;;;;5067924;27;98263;-73
2023/10/17 02:24:09;;;;;;;7.18;3.33;;;;;;;;;;5070416;27;98845;-72
2023/10/17 02:26:43;;;;;;;3.20;2.83;;;;;;;;;;5067847;27;102567;-72
2023/10/17 02:29:14;;;;;;;3.75;3.45;;;;;;;;;;5068177;27;98120;-72
2023/10/17 02:31:41;;;;;;;6.88;3.97;;;;;;;;;;5064732;27;100956;-72
2023/10/17 02:34:11;;;;;;;8.18;3.38;;;;;;;;;;5053504;27;99501;-72
2023/10/17 02:36:37;;;;;;;11.18;3.78;;;;;;;;;;5060599;27;98616;-72
2023/10/17 02:39:05;;;;;;;3.70;2.72;;;;;;;;;;5069696;27;99144;-72
2023/10/17 02:41:32;;;;;;;7.63;2.80;;;;;;;;;;5069713;27;98208;-73
2023/10/17 02:43:59;;;;;;;12.98;3.28;;;;;;;;;;5070252;27;98582;-72
2023/10/17 02:46:28;;;;;;;7.47;3.17;;;;;;;;;;5067935;27;98729;-72
2023/10/17 02:48:55;;;;;;;12.65;3.95;;;;;;;;;;5067222;27;98389;-72
2023/10/17 02:53:51;;;;;;;6.50;3.47;;;;;;;;;;5066638;27;101793;-72
2023/10/17 02:56:18;;;;;;;8.48;3.00;;;;;;;;;;5072921;27;98202;-72
2023/10/17 02:58:49;;;;;;;5.45;3.67;;;;;;;;;;5069625;27;99095;-71
2023/10/17 03:01:19;;;;;;;3.85;3.22;;;;;;;;;;5067777;27;98406;-72
2023/10/17 03:03:52;;;;;;;4.55;3.05;;;;;;;;;;5065740;27;99005;-72
2023/10/17 03:06:19;;;;;;;9.35;3.10;;;;;;;;;;5059771;27;100945;-73
2023/10/17 03:08:51;;;;;;;4.28;2.90;;;;;;;;;;5064461;27;98183;-72
2023/10/17 03:11:26;;;;;;;5.10;2.72;;;;;;;;;;5054791;27;98362;-72
2023/10/17 03:13:53;;;;;;;4.60;2.95;;;;;;;;;;5065627;27;101701;-72
2023/10/17 03:16:26;;;;;;;6.53;2.88;;;;;;;;;;5072355;27;98186;-72
2023/10/17 03:18:58;;;;;;;7.22;3.10;;;;;;;;;;5057897;27;98534;-72
2023/10/17 03:21:34;;;;;;;14.00;3.13;;;;;;;;;;5051233;27;98524;-72
2023/10/17 03:24:04;;;;;;;6.35;3.20;;;;;;;;;;5048657;27;98614;-72
2023/10/17 03:26:39;;;;;;;3.88;3.47;;;;;;;;;;5047218;27;99021;-72
2023/10/17 03:29:14;;;;;;;8.88;3.25;;;;;;;;;;5045714;27;98335;-72
2023/10/17 03:31:45;;;;;;;3.55;2.97;;;;;;;;;;5053282;27;100326;-73
2023/10/17 03:34:12;;;;;;;10.83;3.20;;;;;;;;;;5067538;27;98990;-72
2023/10/17 03:39:20;;;;;;;12.70;2.20;;;;;;;;;;5068073;27;99028;-72
2023/10/17 03:41:56;;;;;;;8.60;2.67;;;;;;;;;;5047996;27;98548;-72
2023/10/17 03:44:39;;;;;;;3.83;2.67;;;;;;;;;;5047180;27;98416;-72
2023/10/17 03:47:05;;;;;;;4.90;2.67;;;;;;;;;;5048203;27;98939;-71
2023/10/17 03:49:37;;;;;;;10.65;3.25;;;;;;;;;;5055928;27;99022;-71
2023/10/17 03:52:06;;;;;;;7.03;2.83;;;;;;;;;;5061717;27;99517;-72
2023/10/17 03:54:38;;;;;;;6.53;3.13;;;;;;;;;;5047765;27;98988;-72
2023/10/17 03:57:14;;;;;;;9.77;3.33;;;;;;;;;;5047124;27;98428;-71
2023/10/17 03:59:50;;;;;;;2.78;2.40;;;;;;;;;;5048373;27;99754;-71
2023/10/17 04:02:21;;;;;;;4.65;2.90;;;;;;;;;;5050988;27;99043;-72
2023/10/17 04:04:56;;;;;;;3.50;2.47;;;;;;;;;;5048128;27;99456;-72
2023/10/17 04:07:26;;;;;;;3.75;2.70;;;;;;;;;;5055507;27;98890;-71
2023/10/17 04:12:48;;;;;;;10.18;3.25;;;;;;;;;;5047887;27;98681;-72
2023/10/17 04:15:18;;;;;;;4.93;2.78;;;;;;;;;;5047326;27;99143;-71
2023/10/17 04:17:48;;;;;;;6.43;3.00;;;;;;;;;;5047482;27;98289;-71
2023/10/17 04:20:16;;;;;;;3.33;3.08;;;;;;;;;;5056982;27;98835;-72
2023/10/17 04:22:45;;;;;;;6.40;3.90;;;;;;;;;;5062222;27;99504;-72
2023/10/17 04:27:59;;;;;;;2.85;2.63;;;;;;;;;;5048478;27;99500;-71
2023/10/17 04:31:10;;;;;;;5.20;2.88;;;;;;;;;;5047720;27;98988;-73
2023/10/17 04:33:19;;;;;;;4.38;3.40;;;;;;;;;;5053625;27;98710;-71
2023/10/17 04:35:47;;;;;;;3.28;2.97;;;;;;;;;;5067302;27;99369;-71
2023/10/17 04:38:26;;;;;;;6.53;3.35;;;;;;;;;;5068377;27;98314;-71
2023/10/17 04:44:02;;;;;;;5.82;2.80;;;;;;;;;;5047800;27;98941;-72
2023/10/17 04:46:29;;;;;;;6.90;3.47;;;;;;;;;;5046440;27;98231;-72
2023/10/17 04:49:06;;;;;;;6.80;3.30;;;;;;;;;;5058849;27;99377;-72
2023/10/17 04:51:38;;;;;;;5.63;3.85;;;;;;;;;;5067308;27;98253;-71
2023/10/17 04:54:23;;;;;;;10.18;4.82;;;;;;;;;;5067653;27;99448;-72
2023/10/17 04:56:55;;;;;;;6.38;3.67;;;;;;;;;;5054345;27;99005;-72
2023/10/17 04:59:41;;;;;;;6.13;3.37;;;;;;;;;;5046303;27;98655;-73
2023/10/17 06:19:15;;;;;;;7.55;6.25;;;;;;;;;;5056951;27;99071;-70
2023/10/17 06:34:48;;;;;;;10.98;6.90;;;;;;;;;;5050240;27;98284;-72
2023/10/17 06:37:28;;;;;;;13.23;7.60;;;;;;;;;;5052034;27;98526;-72
2023/10/17 06:39:58;;;;;;;10.95;7.00;;;;;;;;;;5053077;27;99571;-71
2023/10/17 06:42:29;;;;;;;13.60;6.93;;;;;;;;;;5049415;27;98411;-72
2023/10/17 06:45:09;;;;;;;8.40;7.57;;;;;;;;;;5049779;27;99867;-71
2023/10/17 06:47:41;;;;;;;12.77;7.55;;;;;;;;;;5054543;27;100479;-71
2023/10/17 06:52:54;;;;;;;;;;;;;;;;;;5049196;27;99376;-71
2023/10/17 06:55:22;;;;;;;5.53;5.07;;;;;;;;;;5049931;27;122016;-71
2023/10/17 06:57:50;;;;;;;13.07;7.03;;;;;;;;;;5069592;27;98710;-71
2023/10/17 07:00:24;;;;;;;8.20;6.75;;;;;;;;;;5068414;27;98992;-71
2023/10/17 07:02:51;;;;;;;8.73;6.88;;;;;;;;;;5100518;27;98082;-71
2023/10/17 07:05:23;;;;;;;6.53;5.78;;;;;;;;;;5066991;27;98802;-71
2023/10/17 07:07:52;;;;;;;10.32;6.95;;;;;;;;;;5053182;27;99190;-71
2023/10/17 07:10:38;;;;;;;16.77;6.10;;;;;;;;;;5073076;27;98013;-71
2023/10/17 07:13:23;;;;;;;7.38;6.18;;;;;;;;;;5068808;27;100138;-71
2023/10/17 07:15:53;;;;;;;6.13;5.55;;;;;;;;;;5068592;27;98223;-71
2023/10/17 07:23:42;;;;;;;13.77;5.90;;;;;;;;;;5062075;27;98993;-71
2023/10/17 07:26:17;;;;;;;11.02;5.95;;;;;;;;;;5069335;27;99615;-71
2023/10/17 07:28:44;;;;;;;14.40;6.22;;;;;;;;;;5061512;27;99153;-71
2023/10/17 07:31:13;;;;;;;7.22;5.80;;;;;;;;;;5048872;27;98243;-71
2023/10/17 07:33:43;;;;;;;10.93;7.25;;;;;;;;;;5057570;27;98790;-71
2023/10/17 07:36:16;;;;;;;6.38;5.72;;;;;;;;;;5063795;27;98768;-71
2023/10/17 07:38:45;;;;;;;6.97;6.28;;;;;;;;;;5047347;27;101107;-71
2023/10/17 07:41:14;;;;;;;7.72;5.03;;;;;;;;;;5054570;27;98996;-71
2023/10/17 07:43:57;;;;;;;10.20;6.70;;;;;;;;;;5059693;27;98194;-71
2023/10/17 07:46:26;;;;;;;;;;;;;;;;;;5062715;27;98862;-70
2023/10/17 07:49:03;;;;;;;12.52;6.35;;;;;;;;;;5071231;27;128053;-71
2023/10/17 07:51:32;;;;;;;13.68;6.60;;;;;;;;;;5069259;27;98227;-71
2023/10/17 07:53:58;;;;;;;8.38;5.20;;;;;;;;;;5067630;27;98948;-73
2023/10/17 07:56:26;;;;;;;6.88;5.45;;;;;;;;;;5049136;27;98242;-72
2023/10/17 07:59:15;;;;;;;8.27;6.25;;;;;;;;;;5053724;27;98637;-72
2023/10/17 08:01:43;;;;;;;8.43;5.93;;;;;;;;;;5053964;27;98518;-71
2023/10/17 08:04:13;;;;;;;8.13;5.00;;;;;;;;;;5050231;27;98061;-72
2023/10/17 08:06:40;;;;;;;11.68;5.45;;;;;;;;;;5047950;27;98495;-72
2023/10/17 08:09:18;;;;;;;7.57;6.15;;;;;;;;;;5047666;27;100362;-72
2023/10/17 08:12:08;;;;;;;8.80;6.22;;;;;;;;;;5048507;27;98210;-72
2023/10/17 08:14:42;;;;;;;11.60;6.38;;;;;;;;;;5058475;27;98743;-72
2023/10/17 08:17:09;;;;;;;5.30;4.85;;;;;;;;;;5070655;27;99982;-71
2023/10/17 08:22:25;;;;;;;6.72;5.57;;;;;;;;;;5067478;27;98839;-72
2023/10/17 08:24:51;;;;;;;4.53;4.13;;;;;;;;;;5067977;27;98402;-71
2023/10/17 08:29:49;;;;;;;5.95;5.40;;;;;;;;;;5047366;27;99247;-71
2023/10/17 08:34:48;;;;;;;7.47;3.83;;;;;;;;;;5069023;27;98724;-72
2023/10/17 08:37:26;;;;;;;5.00;3.95;;;;;;;;;;5067745;27;98945;-72
2023/10/17 08:39:52;;;;;;;3.75;3.45;;;;;;;;;;5070242;27;98204;-72
2023/10/17 08:42:30;;;;;;;4.00;3.60;;;;;;;;;;5061762;27;99145;-71
2023/10/17 08:44:59;;;;;;;4.95;3.67;;;;;;;;;;5068057;27;98576;-73
2023/10/17 08:47:30;;;;;;;5.38;3.78;;;;;;;;;;5055127;27;98672;-73
2023/10/17 08:50:02;;;;;;;11.80;4.40;;;;;;;;;;5047834;27;99072;-71
2023/10/17 08:52:35;;;;;;;7.63;2.85;;;;;;;;;;5046714;27;98285;-71
2023/10/17 08:55:27;;;;;;;4.10;3.80;;;;;;;;;;5047426;27;99714;-71
2023/10/17 08:57:53;;;;;;;6.23;3.50;;;;;;;;;;5046615;27;100317;-71
2023/10/17 09:00:49;;;;;;;4.32;3.17;;;;;;;;;;5046322;27;98300;-72
2023/10/17 09:03:35;;;;;;;5.13;3.85;;;;;;;;;;5048982;27;98755;-72
2023/10/17 09:08:50;;;;;;;3.78;2.97;;;;;;;;;;5047995;27;98530;-71
2023/10/17 09:11:29;;;;;;;3.33;3.03;;;;;;;;;;5047143;27;99252;-72
2023/10/17 09:16:50;;;;;;;3.72;3.33;;;;;;;;;;5048003;27;98626;-73
2023/10/17 09:19:20;;;;;;;3.90;3.15;;;;;;;;;;5047178;27;98995;-72
2023/10/17 09:21:47;;;;;;;3.58;2.97;;;;;;;;;;5059969;27;98985;-73
2023/10/17 09:24:29;;;;;;;3.83;3.22;;;;;;;;;;5066644;27;98707;-73
2023/10/17 09:26:56;;;;;;;6.38;2.63;;;;;;;;;;5069288;27;99325;-73
2023/10/17 09:29:25;;;;;;;6.20;3.20;;;;;;;;;;5067468;27;99825;-72
2023/10/17 09:31:52;;;;;;;2.60;2.47;;;;;;;;;;5067151;27;100116;-72
2023/10/17 09:34:20;;;;;;;12.43;3.60;;;;;;;;;;5066575;27;98235;-73
2023/10/17 09:36:47;;;;;;;4.05;2.47;;;;;;;;;;5067222;27;98417;-72
2023/10/17 09:39:18;;;;;;;4.88;2.90;;;;;;;;;;5066491;27;98924;-72
2023/10/17 09:42:01;;;;;;;4.82;2.78;;;;;;;;;;5067454;27;98240;-72
2023/10/17 09:44:29;;;;;;;3.95;2.42;;;;;;;;;;5067251;27;98232;-73
2023/10/17 09:47:00;;;;;;;3.00;2.20;;;;;;;;;;5066365;27;100160;-72
2023/10/17 09:49:31;;;;;;;2.28;1.75;;;;;;;;;;5068888;27;98460;-74
2023/10/17 09:52:00;;;;;;;3.38;2.25;;;;;;;;;;5060578;27;99882;-72
2023/10/17 09:54:34;;;;;;;2.00;1.90;;;;;;;;;;5055615;27;98606;-73
2023/10/17 09:57:02;;;;;;;2.63;2.05;;;;;;;;;;5047443;27;98521;-72
2023/10/17 09:59:31;;;;;;;1.95;1.85;;;;;;;;;;5055041;27;99204;-75
2023/10/17 10:01:58;;;;;;;2.67;2.08;;;;;;;;;;5049065;27;100012;-71
2023/10/17 10:04:25;;;;;;;2.75;2.50;;;;;;;;;;5047517;27;99743;-70
2023/10/17 10:07:14;;;;;;;6.05;2.55;;;;;;;;;;5047243;27;99837;-71
2023/10/17 10:09:40;;;;;;;2.20;2.00;;;;;;;;;;5049770;27;98262;-72
2023/10/17 10:12:07;;;;;;;7.10;3.72;;;;;;;;;;5046696;27;99069;-71
2023/10/17 10:14:34;;;;;;;6.15;2.90;;;;;;;;;;5045508;27;98303;-72
2023/10/17 10:17:04;;;;;;;8.27;2.90;;;;;;;;;;5049194;27;99441;-72
2023/10/17 10:19:42;;;;;;;4.75;2.70;;;;;;;;;;5054689;27;100025;-72
2023/10/17 10:22:13;;;;;;;2.90;2.33;;;;;;;;;;5046457;27;98115;-72
2023/10/17 10:24:41;;;;;;;3.53;2.20;;;;;;;;;;5045534;27;98368;-71
2023/10/17 10:27:08;;;;;;;4.22;2.78;;;;;;;;;;5053104;27;99534;-72
2023/10/17 10:29:34;;;;;;;4.43;2.53;;;;;;;;;;5062028;27;98235;-72
2023/10/17 10:32:05;;;;;;;2.92;2.72;;;;;;;;;;5069652;27;98980;-72
2023/10/17 10:34:35;;;;;;;3.75;2.22;;;;;;;;;;5047133;27;99213;-72
2023/10/17 10:37:08;;;;;;;5.78;2.40;;;;;;;;;;5057741;27;98833;-70
2023/10/17 10:39:37;;;;;;;3.20;1.83;;;;;;;;;;5056742;27;99088;-72
2023/10/17 10:42:07;;;;;;;5.43;2.35;;;;;;;;;;5050527;27;99723;-72
2023/10/17 10:44:42;;;;;;;2.88;2.58;;;;;;;;;;5049090;27;99415;-71
2023/10/17 10:47:09;;;;;;;3.45;2.33;;;;;;;;;;5061532;27;100066;-72
2023/10/17 10:49:35;;;;;;;4.28;2.25;;;;;;;;;;5061084;27;98301;-72
2023/10/17 10:52:03;;;;;;;2.95;2.40;;;;;;;;;;5050151;27;98573;-71
2023/10/17 10:54:49;;;;;;;4.85;2.92;;;;;;;;;;5051639;27;99130;-73
2023/10/17 10:57:25;;;;;;;4.68;2.30;;;;;;;;;;5068404;27;98910;-72
2023/10/17 10:59:52;;;;;;;2.72;2.50;;;;;;;;;;5067878;27;98981;-71
2023/10/17 11:02:20;;;;;;;4.65;2.90;;;;;;;;;;5069438;27;98246;-72
2023/10/17 11:04:49;;;;;;;8.70;2.75;;;;;;;;;;5061719;27;98557;-71
2023/10/17 11:07:19;;;;;;;4.60;2.50;;;;;;;;;;5059475;27;99234;-70
2023/10/17 11:09:59;;;;;;;8.30;3.47;;;;;;;;;;5068462;27;98224;-72
2023/10/17 11:12:26;;;;;;;6.57;3.67;;;;;;;;;;5062151;27;99527;-72
2023/10/17 11:15:14;;;;;;;5.70;2.75;;;;;;;;;;5062340;27;99232;-72
2023/10/17 11:17:45;;;;;;;3.08;2.65;;;;;;;;;;5085892;27;98291;-72
2023/10/17 11:20:17;;;;;;;5.50;2.42;;;;;;;;;;5066322;27;99339;-73
2023/10/17 11:22:44;;;;;;;3.40;2.78;;;;;;;;;;5069621;27;98223;-72
2023/10/17 11:25:27;;;;;;;4.20;2.70;;;;;;;;;;5069133;27;98606;-71
2023/10/17 11:27:56;;;;;;;4.60;2.38;;;;;;;;;;5053289;27;98821;-72
2023/10/17 11:30:32;;;;;;;3.58;1.98;;;;;;;;;;5050086;27;98446;-72
2023/10/17 11:33:00;;;;;;;3.80;2.25;;;;;;;;;;5041259;27;100532;-72
2023/10/17 11:35:30;;;;;;;3.35;2.55;;;;;;;;;;5056634;27;98901;-71
2023/10/17 11:37:57;;;;;;;4.60;2.42;;;;;;;;;;5061738;27;98545;-72
2023/10/17 11:40:38;;;;;;;4.32;1.80;;;;;;;;;;5067452;27;99989;-71
2023/10/17 11:43:15;;;;;;;1.73;1.52;;;;;;;;;;5049414;27;98825;-72
2023/10/17 11:45:42;;;;;;;2.20;2.08;;;;;;;;;;5064547;27;98785;-71
2023/10/17 11:48:26;;;;;;;3.10;1.80;;;;;;;;;;5059505;27;100118;-73
2023/10/17 11:51:05;;;;;;;3.60;2.50;;;;;;;;;;5049101;27;98774;-72
2023/10/17 11:53:32;;;;;;;3.08;1.83;;;;;;;;;;5050982;27;101127;-72
2023/10/17 11:55:58;;;;;;;3.58;1.73;;;;;;;;;;5061710;27;99004;-72
2023/10/17 11:58:25;;;;;;;1.67;1.52;;;;;;;;;;5056255;27;99787;-73
2023/10/17 12:00:51;;;;;;;1.67;1.42;;;;;;;;;;5066562;27;98704;-72
2023/10/17 12:03:21;;;;;;;5.00;2.13;;;;;;;;;;5069734;27;98109;-73
2023/10/17 12:05:48;;;;;;;5.22;1.98;;;;;;;;;;5067907;27;98643;-73
2023/10/17 12:08:21;;;;;;;3.88;2.28;;;;;;;;;;5052202;27;101274;-72
2023/10/17 12:10:51;;;;;;;5.45;2.30;;;;;;;;;;5049238;27;98131;-73
2023/10/17 12:13:17;;;;;;;2.25;2.05;;;;;;;;;;5047916;27;99219;-73
2023/10/17 12:15:47;;;;;;;4.95;1.70;;;;;;;;;;5048926;27;99110;-72
2023/10/17 12:18:13;;;;;;;1.70;1.60;;;;;;;;;;5049406;27;98199;-72
2023/10/17 12:20:40;;;;;;;2.92;1.70;;;;;;;;;;5061001;27;100593;-73
2023/10/17 12:23:11;;;;;;;2.42;1.83;;;;;;;;;;5070761;27;99219;-72
2023/10/17 12:25:43;;;;;;;4.38;2.08;;;;;;;;;;5063388;27;99762;-71
2023/10/17 12:28:09;;;;;;;6.18;2.13;;;;;;;;;;5053667;27;98994;-71
2023/10/17 12:30:35;;;;;;;6.10;1.67;;;;;;;;;;5065666;27;98304;-70
2023/10/17 12:33:04;;;;;;;1.95;1.75;;;;;;;;;;5068265;27;98577;-72
2023/10/17 12:35:31;;;;;;;1.85;1.50;;;;;;;;;;5065781;27;99308;-71
2023/10/17 12:37:59;;;;;;;5.20;1.70;;;;;;;;;;5067978;27;98298;-71
2023/10/17 12:40:26;;;;;;;3.10;1.48;;;;;;;;;;5067669;27;98562;-72
2023/10/17 12:42:55;;;;;;;1.15;1.00;;;;;;;;;;5068241;27;99000;-70
2023/10/17 12:45:22;;;;;;;1.90;1.73;;;;;;;;;;5069498;27;98527;-71
2023/10/17 12:47:49;;;;;;;3.47;1.35;;;;;;;;;;5068100;27;99906;-71
2023/10/17 12:50:18;;;;;;;3.33;1.60;;;;;;;;;;5067448;27;98243;-72
2023/10/17 12:52:45;;;;;;;7.25;2.00;;;;;;;;;;5067965;27;99539;-71
2023/10/17 12:55:11;;;;;;;2.30;1.30;;;;;;;;;;5060791;27;99235;-72
2023/10/17 12:57:38;;;;;;;2.08;1.88;;;;;;;;;;5067003;27;98420;-71
2023/10/17 13:00:09;;;;;;;1.15;1.15;;;;;;;;;;5067223;27;98815;-71
2023/10/17 13:02:38;;;;;;;4.53;1.48;;;;;;;;;;5066691;27;99924;-70
2023/10/17 13:05:09;;;;;;;2.70;1.38;;;;;;;;;;5066919;27;98258;-71
2023/10/17 13:07:39;;;;;;;14.07;1.50;;;;;;;;;;5071066;27;98516;-71
2023/10/17 13:10:07;;;;;;;1.55;1.20;;;;;;;;;;5066868;27;98328;-71
2023/10/17 13:12:33;;;;;;;3.42;1.48;;;;;;;;;;5067055;27;99120;-72
2023/10/17 13:15:00;;;;;;;1.98;1.13;;;;;;;;;;5067430;27;99918;-72
2023/10/17 13:17:28;;;;;;;2.35;1.33;;;;;;;;;;5067243;27;98325;-72
2023/10/17 13:19:57;;;;;;;3.90;1.50;;;;;;;;;;5067309;27;98396;-71
2023/10/17 13:22:23;;;;;;;1.38;1.27;;;;;;;;;;5067044;27;99237;-71
2023/10/17 13:24:50;;;;;;;2.08;1.38;;;;;;;;;;5067455;27;98235;-73
2023/10/17 13:27:16;;;;;;;8.52;1.58;;;;;;;;;;5066690;27;98453;-72
2023/10/17 13:29:47;;;;;;;2.55;1.38;;;;;;;;;;5070238;27;99261;-71
2023/10/17 13:32:14;;;;;;;1.65;1.27;;;;;;;;;;5066733;27;98451;-71
2023/10/17 13:34:41;;;;;;;1.90;1.67;;;;;;;;;;5065241;27;100348;-72
2023/10/17 13:37:09;;;;;;;3.78;1.85;;;;;;;;;;5067148;27;98321;-72
2023/10/17 13:39:36;;;;;;;2.38;1.30;;;;;;;;;;5066567;27;99204;-72
2023/10/17 13:42:03;;;;;;;1.67;1.20;;;;;;;;;;5067609;27;100011;-71
2023/10/17 13:44:30;;;;;;;1.30;1.20;;;;;;;;;;5067377;27;98262;-71
2023/10/17 13:46:57;;;;;;;2.67;1.63;;;;;;;;;;5066660;27;98659;-71
2023/10/17 13:49:24;;;;;;;1.60;1.50;;;;;;;;;;5066792;27;99066;-71
2023/10/17 13:51:54;;;;;;;1.65;1.55;;;;;;;;;;5070790;27;98234;-71
2023/10/17 13:54:21;;;;;;;1.27;1.27;;;;;;;;;;5066071;27;99251;-72
2023/10/17 13:56:47;;;;;;;3.17;1.70;;;;;;;;;;5067224;27;98266;-71
2023/10/17 13:59:14;;;;;;;4.05;1.90;;;;;;;;;;5065755;27;98719;-71
2023/10/17 14:01:46;;;;;;;4.55;1.50;;;;;;;;;;5066304;27;99304;-70
2023/10/17 14:04:13;;;;;;;3.22;1.63;;;;;;;;;;5067081;27;98254;-70
2023/10/17 14:06:42;;;;;;;3.03;1.70;;;;;;;;;;5057172;27;99107;-71
2023/10/17 14:09:15;;;;;;;2.85;1.50;;;;;;;;;;5066921;27;98936;-71
2023/10/17 14:11:42;;;;;;;7.15;1.95;;;;;;;;;;5070481;27;99120;-70
2023/10/17 14:14:10;;;;;;;2.70;1.30;;;;;;;;;;5070229;27;98885;-71
2023/10/17 14:16:40;;;;;;;1.40;1.30;;;;;;;;;;5069924;27;98182;-71
2023/10/17 14:19:15;;;;;;;2.00;1.20;;;;;;;;;;5069924;27;98925;-71
2023/10/17 14:22:01;;;;;;;1.45;1.33;;;;;;;;;;5069809;27;99069;-71
2023/10/17 14:24:38;;;;;;;2.17;1.83;;;;;;;;;;5062179;27;98258;-72
2023/10/17 14:27:11;;;;;;;6.22;1.80;;;;;;;;;;5053759;27;99412;-72
2023/10/17 14:29:42;;;;;;;3.20;1.60;;;;;;;;;;5057008;27;99988;-71
2023/10/17 14:32:08;;;;;;;2.75;1.70;;;;;;;;;;5049606;27;100521;-72
2023/10/17 14:34:37;;;;;;;2.03;1.70;;;;;;;;;;5056193;27;99499;-71
2023/10/17 14:37:05;;;;;;;5.68;2.03;;;;;;;;;;5062459;27;99533;-71
2023/10/17 14:39:32;;;;;;;3.00;1.95;;;;;;;;;;5053238;27;99042;-71
2023/10/17 14:41:58;;;;;;;2.78;2.08;;;;;;;;;;5047180;27;99995;-71
2023/10/17 14:44:27;;;;;;;5.65;1.77;;;;;;;;;;5049656;27;98647;-71
2023/10/17 14:46:53;;;;;;;6.30;1.70;;;;;;;;;;5051791;27;98573;-71
2023/10/17 14:49:21;;;;;;;3.22;1.58;;;;;;;;;;5051374;27;98981;-70
2023/10/17 14:51:47;;;;;;;6.35;1.83;;;;;;;;;;5051504;27;99615;-72
2023/10/17 14:54:15;;;;;;;3.67;1.50;;;;;;;;;;5049357;27;98822;-72
2023/10/17 14:56:42;;;;;;;1.75;1.48;;;;;;;;;;5051030;27;100420;-72
2023/10/17 14:59:08;;;;;;;3.80;1.70;;;;;;;;;;5050073;27;99621;-71
2023/10/17 15:01:36;;;;;;;1.48;1.33;;;;;;;;;;5051965;27;99082;-72
2023/10/17 15:04:02;;;;;;;1.38;1.27;;;;;;;;;;5050688;27;100008;-71
2023/10/17 15:06:29;;;;;;;7.03;1.65;;;;;;;;;;5054404;27;100873;-71
2023/10/17 15:08:56;;;;;;;2.70;1.90;;;;;;;;;;5059219;27;99127;-72
2023/10/17 15:11:23;;;;;;;1.52;1.42;;;;;;;;;;5057988;27;98864;-70
2023/10/17 15:13:49;;;;;;;1.90;1.70;;;;;;;;;;5067888;27;99581;-72
2023/10/17 15:16:18;;;;;;;7.32;1.80;;;;;;;;;;5089626;27;98900;-69
2023/10/17 15:18:47;;;;;;;6.47;1.55;;;;;;;;;;5078309;27;98447;-71
2023/10/17 15:21:18;;;;;;;6.18;1.85;;;;;;;;;;5051107;27;99577;-72
2023/10/17 15:23:46;;;;;;;1.65;1.48;;;;;;;;;;5048426;27;98302;-70
2023/10/17 15:26:12;;;;;;;5.65;1.77;;;;;;;;;;5047980;27;98991;-71
2023/10/17 15:28:41;;;;;;;2.33;1.48;;;;;;;;;;5048853;27;98970;-71
2023/10/17 15:31:08;;;;;;;3.70;1.73;;;;;;;;;;5047981;27;98936;-71
2023/10/17 15:33:36;;;;;;;1.63;1.52;;;;;;;;;;5059120;27;98614;-71
2023/10/17 15:36:04;;;;;;;2.15;1.63;;;;;;;;;;5068528;27;99052;-71
2023/10/17 15:38:31;;;;;;;1.73;1.45;;;;;;;;;;5048916;27;98307;-72
2023/10/17 15:40:58;;;;;;;1.55;1.40;;;;;;;;;;5054252;27;98829;-70
2023/10/17 15:43:25;;;;;;;2.97;1.80;;;;;;;;;;5054853;27;100149;-72
2023/10/17 15:45:54;;;;;;;6.53;2.13;;;;;;;;;;5055863;27;98806;-71
2023/10/17 15:48:24;;;;;;;1.83;1.67;;;;;;;;;;5054467;27;99616;-72
2023/10/17 15:50:54;;;;;;;1.52;1.42;;;;;;;;;;5049647;27;99592;-71
2023/10/17 15:53:25;;;;;;;3.75;1.73;;;;;;;;;;5053029;27;99073;-70
2023/10/17 15:55:53;;;;;;;2.05;1.70;;;;;;;;;;5049483;27;99774;-71
2023/10/17 15:58:23;;;;;;;3.10;1.50;;;;;;;;;;5055914;27;98292;-71
2023/10/17 16:00:51;;;;;;;8.20;1.73;;;;;;;;;;5051178;27;99351;-71
2023/10/17 16:03:18;;;;;;;3.25;1.60;;;;;;;;;;5054270;27;99073;-71
2023/10/17 16:05:46;;;;;;;2.97;1.70;;;;;;;;;;5048851;27;100083;-71
2023/10/17 16:08:12;;;;;;;1.60;1.50;;;;;;;;;;5054048;27;98954;-71
2023/10/17 16:10:39;;;;;;;2.55;1.80;;;;;;;;;;5048770;27;99655;-71
2023/10/17 16:13:10;;;;;;;2.78;1.58;;;;;;;;;;5050243;27;100080;-70
2023/10/17 16:15:37;;;;;;;3.28;1.65;;;;;;;;;;5045587;27;98993;-71
2023/10/17 16:18:07;;;;;;;1.77;1.60;;;;;;;;;;5049003;27;100474;-72
2023/10/17 16:20:37;;;;;;;5.10;1.67;;;;;;;;;;5049371;27;100126;-72
2023/10/17 16:23:04;;;;;;;2.25;1.50;;;;;;;;;;5066015;27;99979;-70
2023/10/17 16:25:32;;;;;;;5.03;1.90;;;;;;;;;;5053326;27;99697;-72
2023/10/17 16:27:59;;;;;;;3.75;1.95;;;;;;;;;;5056145;27;99424;-72
2023/10/17 16:30:28;;;;;;;2.25;1.88;;;;;;;;;;5056304;27;98704;-72
2023/10/17 16:32:55;;;;;;;1.42;1.10;;;;;;;;;;5058756;27;98850;-71
2023/10/17 16:35:22;;;;;;;3.10;1.98;;;;;;;;;;5053786;27;98938;-72
2023/10/17 16:37:49;;;;;;;1.60;1.50;;;;;;;;;;5050010;27;98429;-72
2023/10/17 16:40:16;;;;;;;2.72;1.90;;;;;;;;;;5048281;27;99991;-72
2023/10/17 16:42:46;;;;;;;1.92;1.83;;;;;;;;;;5050022;27;99791;-70
2023/10/17 16:45:14;;;;;;;5.68;1.80;;;;;;;;;;5061794;27;98517;-71
2023/10/17 16:47:42;;;;;;;3.80;1.70;;;;;;;;;;5052193;27;98987;-72
2023/10/17 16:50:12;;;;;;;8.55;2.10;;;;;;;;;;5053543;27;99247;-71
2023/10/17 16:52:38;;;;;;;5.70;1.95;;;;;;;;;;5048633;27;99820;-72
2023/10/17 16:55:05;;;;;;;1.92;1.80;;;;;;;;;;5049710;27;99381;-71
2023/10/17 16:57:31;;;;;;;2.83;1.85;;;;;;;;;;5061416;27;99532;-71
2023/10/17 17:00:00;;;;;;;3.90;2.05;;;;;;;;;;5048138;27;99147;-72
2023/10/17 17:02:35;;;;;;;2.95;1.90;;;;;;;;;;5046449;27;99980;-71
2023/10/17 17:05:03;;;;;;;11.35;2.20;;;;;;;;;;5047411;27;99634;-71
2023/10/17 17:07:30;;;;;;;3.03;2.35;;;;;;;;;;5051868;27;99976;-70
2023/10/17 17:09:57;;;;;;;3.38;1.88;;;;;;;;;;5045168;27;100464;-70